createdAt,value
2023-11-24T04:32:06.679Z,6.38
2023-11-24T04:34:35.001Z,6.37
2023-11-24T04:37:04.230Z,6.68
2023-11-24T04:39:31.535Z,6.33
2023-11-24T04:41:58.604Z,6.60
2023-11-24T04:44:25.643Z,6.56
2023-11-24T04:46:53.015Z,6.34
2023-11-24T04:49:20.910Z,6.09
2023-11-24T04:51:48.101Z,5.89
2023-11-24T04:54:15.430Z,5.97
2023-11-24T04:56:42.537Z,6.27
2023-11-24T04:59:09.737Z,6.39
2023-11-24T05:01:36.876Z,6.62
2023-11-24T05:04:04.424Z,6.64
2023-11-24T05:06:31.692Z,6.92
2023-11-24T05:08:58.768Z,6.21
2023-11-24T05:11:26.024Z,6.80
2023-11-24T05:13:53.618Z,5.98
2023-11-24T05:16:21.017Z,6.63
2023-11-24T05:18:50.558Z,6.70
2023-11-24T05:21:17.873Z,7.01
2023-11-24T05:23:45.097Z,7.34
2023-11-24T05:26:12.401Z,7.06
2023-11-24T05:28:39.555Z,6.37
2023-11-24T05:31:07.339Z,7.04
2023-11-24T05:33:34.611Z,7.00
2023-11-24T05:36:01.960Z,7.19
2023-11-24T05:38:29.249Z,6.62
2023-11-24T05:40:56.282Z,7.36
2023-11-24T05:43:23.328Z,7.30
2023-11-24T05:45:50.433Z,6.90
2023-11-24T05:48:18.262Z,7.20
2023-11-24T05:50:45.349Z,6.44
2023-11-24T05:53:12.550Z,5.73
2023-11-24T05:55:40.452Z,5.39
2023-11-24T05:58:07.776Z,5.82
2023-11-24T06:00:34.978Z,5.32
2023-11-24T06:03:02.143Z,5.53
2023-11-24T06:05:30.509Z,6.09
2023-11-24T06:07:59.319Z,6.11
2023-11-24T06:10:26.441Z,5.83
2023-11-24T06:12:53.873Z,6.18
2023-11-24T06:15:21.247Z,6.28
2023-11-24T06:17:49.830Z,6.65
2023-11-24T06:20:17.576Z,7.03
2023-11-24T06:22:45.000Z,6.48
2023-11-24T06:25:15.597Z,7.42
2023-11-24T06:27:44.559Z,8.11
2023-11-24T06:30:12.242Z,7.72
2023-11-24T06:32:39.381Z,7.38
2023-11-24T06:35:07.992Z,7.85
2023-11-24T06:37:35.086Z,7.55
2023-11-24T06:40:04.449Z,7.58
2023-11-24T06:42:32.077Z,7.83
2023-11-24T06:44:59.188Z,6.84
2023-11-24T06:49:54.353Z,7.02
2023-11-24T06:52:21.541Z,6.77
2023-11-24T06:54:48.609Z,7.21
2023-11-24T06:57:17.460Z,6.77
2023-11-24T06:59:44.646Z,6.61
2023-11-24T07:02:11.972Z,7.28
2023-11-24T07:04:39.086Z,6.29
2023-11-24T07:07:06.272Z,6.97
2023-11-24T07:09:33.363Z,7.07
2023-11-24T07:12:00.430Z,7.19
2023-11-24T07:14:28.005Z,7.25
2023-11-24T07:16:55.154Z,6.95
2023-11-24T07:19:23.270Z,7.35
2023-11-24T07:21:50.474Z,7.44
2023-11-24T07:24:18.939Z,7.57
2023-11-24T07:26:46.096Z,7.39
2023-11-24T07:29:15.542Z,7.32
2023-11-24T07:31:42.722Z,7.84
2023-11-24T07:34:11.973Z,7.15
2023-11-24T07:36:39.199Z,7.25
2023-11-24T07:39:07.276Z,8.06
2023-11-24T07:41:34.383Z,8.20
2023-11-24T07:44:03.019Z,7.62
2023-11-24T07:46:30.243Z,7.50
2023-11-24T07:48:57.462Z,7.20
2023-11-24T07:51:25.473Z,8.18
2023-11-24T07:53:52.490Z,8.24
2023-11-24T07:56:19.558Z,8.13
2023-11-24T07:58:46.602Z,8.28
2023-11-24T08:01:14.988Z,8.11
2023-11-24T08:03:42.312Z,7.88
2023-11-24T08:06:09.457Z,7.84
2023-11-24T08:08:36.682Z,6.74
2023-11-24T08:11:03.943Z,7.59
2023-11-24T08:13:31.012Z,6.28
2023-11-24T08:15:58.217Z,6.72
2023-11-24T08:18:25.897Z,6.97
2023-11-24T08:20:54.135Z,6.86
2023-11-24T08:23:22.491Z,7.17
2023-11-24T08:25:49.965Z,7.54
2023-11-24T08:28:17.054Z,6.34
2023-11-24T08:30:44.841Z,6.27
2023-11-24T08:33:12.549Z,5.69
2023-11-24T08:35:39.871Z,5.61
2023-11-24T08:38:06.893Z,5.36
2023-11-24T08:40:34.053Z,6.23
2023-11-24T08:43:02.259Z,6.60
2023-11-24T08:45:29.531Z,6.89
2023-11-24T08:47:56.721Z,7.32
2023-11-24T08:50:23.892Z,6.94
2023-11-24T08:52:53.312Z,7.13
2023-11-24T08:55:21.062Z,7.16
2023-11-24T08:57:48.461Z,6.94
2023-11-24T09:00:16.000Z,6.50
2023-11-24T09:02:43.199Z,6.76
2023-11-24T09:05:10.820Z,7.53
2023-11-24T09:07:38.036Z,7.95
2023-11-24T09:10:05.809Z,7.19
2023-11-24T09:12:32.880Z,7.82
2023-11-24T09:14:59.910Z,7.73
2023-11-24T09:17:27.021Z,7.58
2023-11-24T09:19:54.354Z,7.74
2023-11-24T09:22:21.552Z,8.24
2023-11-24T09:24:49.843Z,8.25
2023-11-24T09:27:18.263Z,7.74
2023-11-24T09:29:45.565Z,7.18
2023-11-24T09:32:12.884Z,7.48
2023-11-24T09:34:40.067Z,7.78
2023-11-24T09:37:07.378Z,7.89
2023-11-24T09:39:34.547Z,7.80
2023-11-24T09:42:02.069Z,8.02
2023-11-24T09:44:29.300Z,7.64
2023-11-24T09:46:57.021Z,8.14
2023-11-24T09:49:24.811Z,6.81
2023-11-24T09:51:52.099Z,7.21
2023-11-24T09:54:19.531Z,7.41
2023-11-24T09:56:46.739Z,7.32
2023-11-24T09:59:15.575Z,6.82
2023-11-24T10:01:43.989Z,6.98
2023-11-24T10:04:11.918Z,7.06
2023-11-24T10:06:40.916Z,7.77
2023-11-24T10:09:12.783Z,7.72
2023-11-24T10:11:40.381Z,7.99
2023-11-24T10:14:13.752Z,7.88
2023-11-24T10:16:44.371Z,7.41
2023-11-24T10:19:18.505Z,7.64
2023-11-24T10:21:48.262Z,7.05
2023-11-24T10:24:18.075Z,7.63
2023-11-24T10:26:47.309Z,7.51
2023-11-24T10:29:15.468Z,7.45
2023-11-24T10:31:42.532Z,7.74
2023-11-24T10:34:09.723Z,8.04
2023-11-24T10:36:37.028Z,7.33
2023-11-24T10:39:07.763Z,7.37
2023-11-24T10:41:37.628Z,7.60
2023-11-24T10:44:05.296Z,7.16
2023-11-24T10:46:33.464Z,7.66
2023-11-24T10:49:09.558Z,8.04
2023-11-24T10:52:02.789Z,8.15
2023-11-24T10:54:36.003Z,8.35
2023-11-24T10:57:04.115Z,8.94
2023-11-24T10:59:39.329Z,8.77
2023-11-24T11:02:08.334Z,7.58
2023-11-24T11:04:38.996Z,6.82
2023-11-24T11:07:20.653Z,7.45
2023-11-24T11:09:52.737Z,7.06
2023-11-24T11:12:32.320Z,7.51
2023-11-24T11:14:59.944Z,8.00
2023-11-24T11:17:27.816Z,7.61
2023-11-24T11:20:23.951Z,7.45
2023-11-24T11:22:59.568Z,7.31
2023-11-24T11:25:33.433Z,7.28
2023-11-24T11:28:37.933Z,7.03
2023-11-24T11:31:37.011Z,7.23
2023-11-24T11:34:15.432Z,7.20
2023-11-24T11:36:52.783Z,6.71
2023-11-24T11:39:26.686Z,7.05
2023-11-24T11:41:53.861Z,7.59
2023-11-24T11:44:27.438Z,7.45
2023-11-24T11:47:12.002Z,7.87
2023-11-24T11:49:41.840Z,7.67
2023-11-24T11:52:12.392Z,7.59
2023-11-24T11:54:40.459Z,8.12
2023-11-24T11:57:08.581Z,7.33
2023-11-24T11:59:36.236Z,7.02
2023-11-24T12:02:05.489Z,7.34
2023-11-24T12:04:33.982Z,7.00
2023-11-24T12:07:02.358Z,7.63
2023-11-24T12:09:30.361Z,6.69
2023-11-24T12:11:57.537Z,7.49
2023-11-24T12:14:24.604Z,7.24
2023-11-24T12:16:51.776Z,7.68
2023-11-24T12:19:19.022Z,7.16
2023-11-24T12:21:47.744Z,7.26
2023-11-24T12:24:17.169Z,7.20
2023-11-24T12:26:46.203Z,6.46
2023-11-24T12:29:14.784Z,6.41
2023-11-24T12:31:43.838Z,7.13
2023-11-24T12:34:24.350Z,6.76
2023-11-24T12:36:57.558Z,6.44
2023-11-24T12:39:31.963Z,6.58
2023-11-24T12:41:59.779Z,6.40
2023-11-24T12:44:27.977Z,6.57
2023-11-24T12:47:16.011Z,6.79
2023-11-24T12:49:55.243Z,6.57
2023-11-24T12:52:22.641Z,6.61
2023-11-24T12:54:50.695Z,6.49
2023-11-24T12:57:18.273Z,6.60
2023-11-24T12:59:45.344Z,6.36
2023-11-24T13:02:12.543Z,5.94
2023-11-24T13:04:39.680Z,6.49
2023-11-24T13:07:08.045Z,6.40
2023-11-24T13:09:35.508Z,6.07
2023-11-24T13:12:12.922Z,5.84
2023-11-24T13:14:46.323Z,5.88
2023-11-24T13:17:14.412Z,5.97
2023-11-24T13:19:44.072Z,6.03
2023-11-24T13:22:13.077Z,6.06
2023-11-24T13:24:42.092Z,6.47
2023-11-24T13:27:11.528Z,6.70
2023-11-24T13:29:43.981Z,5.96
2023-11-24T13:32:12.770Z,5.88
2023-11-24T13:34:42.753Z,6.50
2023-11-24T13:37:09.937Z,6.38
2023-11-24T13:39:37.349Z,6.60
2023-11-24T13:42:04.746Z,6.18
2023-11-24T13:44:32.237Z,6.14
2023-11-24T13:47:00.005Z,6.08
2023-11-24T13:49:27.267Z,5.87
2023-11-24T13:51:54.801Z,5.33
2023-11-24T13:54:24.832Z,5.37
2023-11-24T13:56:56.762Z,6.29
2023-11-24T13:59:26.142Z,5.90
2023-11-24T14:01:53.872Z,5.67
2023-11-24T14:04:23.069Z,6.40
2023-11-24T14:06:53.269Z,6.33
2023-11-24T14:09:30.784Z,6.33
2023-11-24T14:12:00.051Z,5.78
2023-11-24T14:14:28.808Z,5.94
2023-11-24T14:16:57.198Z,6.03
2023-11-24T14:19:24.405Z,4.93
2023-11-24T14:21:51.944Z,4.49
2023-11-24T14:24:19.646Z,5.14
2023-11-24T14:26:46.886Z,5.22
2023-11-24T14:29:17.620Z,4.94
2023-11-24T14:31:45.244Z,5.13
2023-11-24T14:34:12.424Z,5.41
2023-11-24T14:36:40.492Z,5.40
2023-11-24T14:39:20.726Z,5.45
2023-11-24T14:41:48.555Z,5.16
2023-11-24T14:44:15.564Z,5.13
2023-11-24T14:46:42.679Z,4.95
2023-11-24T14:49:09.882Z,4.96
2023-11-24T14:51:39.663Z,5.05
2023-11-24T14:54:07.058Z,5.13
2023-11-24T14:56:36.447Z,5.29
2023-11-24T14:59:06.918Z,5.24
2023-11-24T15:01:34.361Z,5.07
2023-11-24T15:04:01.644Z,5.75
2023-11-24T15:06:29.034Z,5.20
2023-11-24T15:09:01.414Z,5.55
2023-11-24T15:11:45.364Z,5.62
2023-11-24T15:14:15.865Z,5.59
2023-11-24T15:17:09.667Z,5.63
2023-11-24T15:19:37.583Z,5.79
2023-11-24T15:22:10.670Z,5.96
2023-11-24T15:24:39.775Z,5.41
2023-11-24T15:27:09.249Z,5.16
2023-11-24T15:29:38.992Z,5.46
2023-11-24T15:32:12.042Z,5.71
2023-11-24T15:34:39.493Z,5.42
2023-11-24T15:37:08.120Z,5.53
2023-11-24T15:39:42.829Z,5.31
2023-11-24T15:42:10.978Z,4.46
2023-11-24T15:44:38.881Z,5.37
2023-11-24T15:47:09.346Z,5.67
2023-11-24T15:49:38.140Z,5.76
2023-11-24T15:52:09.087Z,5.37
2023-11-24T15:54:37.232Z,5.78
2023-11-24T15:57:04.831Z,5.76
2023-11-24T15:59:35.252Z,5.83
2023-11-24T16:02:05.779Z,5.16
2023-11-24T16:04:36.449Z,4.74
2023-11-24T16:07:11.521Z,4.91
2023-11-24T16:09:39.093Z,4.47
2023-11-24T16:12:09.344Z,4.30
2023-11-24T16:14:38.973Z,4.45
2023-11-24T16:17:06.895Z,3.88
2023-11-24T16:19:35.144Z,3.86
2023-11-24T16:22:02.959Z,3.99
2023-11-24T16:24:32.650Z,4.40
2023-11-24T16:27:00.406Z,4.67
2023-11-24T16:29:27.687Z,4.42
2023-11-24T16:31:56.155Z,4.23
2023-11-24T16:34:24.434Z,4.16
2023-11-24T16:36:51.761Z,4.01
2023-11-24T16:39:19.140Z,3.34
2023-11-24T16:41:47.626Z,4.06
2023-11-24T16:44:14.777Z,4.18
2023-11-24T16:46:45.186Z,4.01
2023-11-24T16:49:14.496Z,4.12
2023-11-24T16:51:41.799Z,4.57
2023-11-24T16:54:08.922Z,4.31
2023-11-24T16:56:36.186Z,4.54
2023-11-24T16:59:03.782Z,4.32
2023-11-24T17:01:31.184Z,3.95
2023-11-24T17:03:59.720Z,3.35
2023-11-24T17:06:27.881Z,4.28
2023-11-24T17:08:55.663Z,3.84
2023-11-24T17:11:22.997Z,3.99
2023-11-24T17:13:50.052Z,3.62
2023-11-24T17:16:18.936Z,3.66
2023-11-24T17:18:46.025Z,3.67
2023-11-24T17:21:13.782Z,2.58
2023-11-24T17:23:42.095Z,3.12
2023-11-24T17:26:13.109Z,3.60
2023-11-24T17:28:40.806Z,3.68
2023-11-24T17:31:09.520Z,3.77
2023-11-24T17:33:41.426Z,3.48
2023-11-24T17:36:09.622Z,4.27
2023-11-24T17:38:38.074Z,4.10
2023-11-24T17:41:06.713Z,4.47
2023-11-24T17:43:33.946Z,4.51
2023-11-24T17:46:01.208Z,4.42
2023-11-24T17:48:28.310Z,4.44
2023-11-24T17:50:55.316Z,4.23
2023-11-24T17:53:22.360Z,4.39
2023-11-24T17:55:49.649Z,4.55
2023-11-24T17:58:17.757Z,5.38
2023-11-24T18:00:44.873Z,5.41
2023-11-24T18:03:12.146Z,5.04
2023-11-24T18:05:39.346Z,3.84
2023-11-24T18:08:06.787Z,4.67
2023-11-24T18:10:33.980Z,5.04
2023-11-24T18:13:01.748Z,4.94
2023-11-24T18:15:28.838Z,4.61
2023-11-24T18:17:56.936Z,4.72
2023-11-24T18:20:26.162Z,5.35
2023-11-24T18:22:53.711Z,5.27
2023-11-24T18:25:20.910Z,5.72
2023-11-24T18:27:48.188Z,5.65
2023-11-24T18:30:15.336Z,5.42
2023-11-24T18:32:43.175Z,5.27
2023-11-24T18:35:11.392Z,4.32
2023-11-24T18:37:39.087Z,3.95
2023-11-24T18:40:06.904Z,4.09
2023-11-24T18:42:34.079Z,4.96
2023-11-24T18:45:02.695Z,4.72
2023-11-24T18:47:29.823Z,4.69
2023-11-24T18:49:57.535Z,4.38
2023-11-24T18:52:24.913Z,4.74
2023-11-24T18:54:54.997Z,4.53
2023-11-24T18:57:22.244Z,5.03
2023-11-24T18:59:49.361Z,4.67
2023-11-24T19:02:16.654Z,4.29
2023-11-24T19:04:44.366Z,3.82
2023-11-24T19:07:12.284Z,4.05
2023-11-24T19:09:39.519Z,4.04
2023-11-24T19:12:07.386Z,4.06
2023-11-24T19:14:35.620Z,4.08
2023-11-24T19:17:04.143Z,3.68
2023-11-24T19:19:32.586Z,3.49
2023-11-24T19:21:59.731Z,3.55
2023-11-24T19:24:26.879Z,2.59
2023-11-24T19:26:54.711Z,2.86
2023-11-24T19:29:21.797Z,3.71
2023-11-24T19:31:49.278Z,3.69
2023-11-24T19:34:16.531Z,3.27
2023-11-24T19:36:43.738Z,3.76
2023-11-24T19:39:12.139Z,3.62
2023-11-24T19:41:39.484Z,4.03
2023-11-24T19:44:06.892Z,4.17
2023-11-24T19:46:34.395Z,3.48
2023-11-24T19:49:01.772Z,3.67
2023-11-24T19:51:28.973Z,3.17
2023-11-24T19:53:56.144Z,3.67
2023-11-24T19:56:23.364Z,3.51
2023-11-24T19:58:50.609Z,3.96
2023-11-24T20:01:21.772Z,4.41
2023-11-24T20:03:49.238Z,3.65
2023-11-24T20:06:17.303Z,3.37
2023-11-24T20:08:46.299Z,3.87
2023-11-24T20:11:13.744Z,3.82
2023-11-24T20:13:40.939Z,4.38
2023-11-24T20:16:08.430Z,4.11
2023-11-24T20:18:35.579Z,3.45
2023-11-24T20:21:02.691Z,3.14
2023-11-24T20:23:30.134Z,2.94
2023-11-24T20:25:57.396Z,2.96
2023-11-24T20:28:24.696Z,3.18
2023-11-24T20:30:52.703Z,3.45
2023-11-24T20:33:19.821Z,3.12
2023-11-24T20:35:46.952Z,4.16
2023-11-24T20:38:14.144Z,4.32
2023-11-24T20:40:41.513Z,4.09
2023-11-24T20:43:08.687Z,3.17
2023-11-24T20:45:36.970Z,3.74
2023-11-24T20:48:05.606Z,4.12
2023-11-24T20:50:32.933Z,4.09
2023-11-24T20:53:00.298Z,3.77
2023-11-24T20:55:27.985Z,3.90
2023-11-24T20:57:55.496Z,3.53
2023-11-24T21:00:24.164Z,3.88
2023-11-24T21:02:53.407Z,3.57
2023-11-24T21:05:21.356Z,3.13
2023-11-24T21:07:51.412Z,3.30
2023-11-24T21:10:19.061Z,3.33
2023-11-24T21:12:46.697Z,3.26
2023-11-24T21:15:15.843Z,3.82
2023-11-24T21:17:43.122Z,4.28
2023-11-24T21:20:11.418Z,3.82
2023-11-24T21:22:38.707Z,3.64
2023-11-24T21:25:07.046Z,3.95
2023-11-24T21:27:34.558Z,3.21
2023-11-24T21:30:01.720Z,3.62
2023-11-24T21:32:31.417Z,3.54
2023-11-24T21:34:59.535Z,4.21
2023-11-24T21:37:30.363Z,3.64
2023-11-24T21:40:01.767Z,4.03
2023-11-24T21:42:31.885Z,2.91
2023-11-24T21:44:59.195Z,3.98
2023-11-24T21:47:27.077Z,4.25
2023-11-24T21:49:55.458Z,3.88
2023-11-24T21:52:22.656Z,2.94
2023-11-24T21:54:49.957Z,3.50
2023-11-24T21:57:16.960Z,3.46
2023-11-24T21:59:44.161Z,3.86
2023-11-24T22:02:12.418Z,3.76
2023-11-24T22:04:39.521Z,3.11
2023-11-24T22:07:06.656Z,2.49
2023-11-24T22:09:34.198Z,3.33
2023-11-24T22:12:01.297Z,3.69
2023-11-24T22:14:28.352Z,3.62
2023-11-24T22:16:55.495Z,3.88
2023-11-24T22:19:24.097Z,3.24
2023-11-24T22:21:51.297Z,3.68
2023-11-24T22:24:18.639Z,3.44
2023-11-24T22:26:45.766Z,3.62
2023-11-24T22:29:13.561Z,3.60
2023-11-24T22:31:41.129Z,4.25
2023-11-24T22:34:08.622Z,3.74
2023-11-24T22:36:35.841Z,3.81
2023-11-24T22:39:02.899Z,3.16
2023-11-24T22:41:30.056Z,2.69
2023-11-24T22:43:57.322Z,3.25
2023-11-24T22:46:25.402Z,3.39
2023-11-24T22:48:53.406Z,3.52
2023-11-24T22:51:25.101Z,3.50
2023-11-24T22:53:52.152Z,3.49
2023-11-24T22:56:26.817Z,3.39
2023-11-24T22:58:56.598Z,3.17
